Terminal Aerodrome Forecast
Issued by NWS Boston, MA

Home | Current Version | Previous Version | Text Only | Print | Product List | Glossary On
Versions: 1 2 3 4 5 6 7 8 9 10 11 12 13 14 15 16 17 18 19 20 21 22 23 24 25 26 27 28 29 30 31 32
000
FTUS41 KBOX 240829 AAA
TAFBOS
TAF AMD
KBOS 240829Z 2408/2512 34009KT 6SM BR VCSH OVC012
     FM241500 33010G18KT P6SM OVC015
     FM242100 32008KT P6SM OVC025
     FM250000 32008KT P6SM OVC090
     FM250900 29007KT P6SM SCT250=

USA.gov is the U.S. government's official web portal to all federal, state and local government web resources and services.